createdAt,value
2019-03-30T00:00:42.491Z,36.10
2019-03-30T00:05:56.402Z,46.17
2019-03-30T00:11:19.823Z,53.13
2019-03-30T00:16:25.846Z,37.75
2019-03-30T00:21:28.982Z,39.00
2019-03-30T00:26:53.090Z,51.79
2019-03-30T00:32:18.834Z,53.00
2019-03-30T00:37:30.634Z,50.50
2019-03-30T00:42:35.087Z,41.50
2019-03-30T00:47:58.066Z,49.64
2019-03-30T00:53:09.408Z,45.36
2019-03-30T01:03:45.899Z,44.00
2019-03-30T01:15:21.305Z,55.04
2019-03-30T01:20:28.538Z,66.12
2019-03-30T01:25:32.690Z,39.00
2019-03-30T01:30:49.791Z,38.42
2019-03-30T01:36:06.258Z,46.70
2019-03-30T01:42:34.038Z,44.15
2019-03-30T01:47:42.245Z,39.82
2019-03-30T01:52:45.976Z,38.20
2019-03-30T01:57:50.041Z,45.00
2019-03-30T02:02:55.103Z,52.00
2019-03-30T02:08:07.750Z,40.19
2019-03-30T02:13:20.998Z,39.47
2019-03-30T02:18:30.135Z,37.92
2019-03-30T02:23:33.806Z,38.80
2019-03-30T02:28:43.079Z,38.00
2019-03-30T02:33:46.867Z,42.50
2019-03-30T02:38:50.751Z,45.80
2019-03-30T02:43:54.478Z,44.60
2019-03-30T02:49:04.179Z,42.67
2019-03-30T02:54:16.551Z,43.92
2019-03-30T02:59:20.996Z,42.00
2019-03-30T03:04:35.053Z,52.74
2019-03-30T03:09:44.208Z,37.18
2019-03-30T03:14:59.979Z,45.33
2019-03-30T03:20:05.062Z,46.40
2019-03-30T03:25:09.949Z,42.00
2019-03-30T03:30:14.407Z,39.50
2019-03-30T03:35:21.035Z,49.80
2019-03-30T03:40:24.780Z,48.00
2019-03-30T03:45:29.101Z,44.33
2019-03-30T03:50:41.057Z,38.70
2019-03-30T03:55:55.041Z,35.91
2019-03-30T04:01:04.676Z,58.67
2019-03-30T04:06:15.971Z,37.00
2019-03-30T04:11:22.975Z,32.25
2019-03-30T04:16:29.753Z,44.25
2019-03-30T04:21:44.250Z,40.25
2019-03-30T04:26:48.221Z,33.38
2019-03-30T04:31:56.404Z,33.63
2019-03-30T04:37:05.945Z,32.00
2019-03-30T04:42:15.245Z,38.88
2019-03-30T04:47:22.111Z,35.38
2019-03-30T04:52:32.899Z,37.30
2019-03-30T04:57:40.072Z,42.30
2019-03-30T05:02:48.472Z,36.11
2019-03-30T05:07:55.950Z,33.38
2019-03-30T05:13:02.610Z,34.38
2019-03-30T05:18:08.355Z,39.00
2019-03-30T05:23:18.094Z,33.89
2019-03-30T05:28:25.344Z,35.63
2019-03-30T05:33:35.854Z,36.60
2019-03-30T05:38:45.126Z,38.45
2019-03-30T05:43:55.152Z,37.70
2019-03-30T05:49:02.450Z,36.20
2019-03-30T05:54:12.259Z,32.30
2019-03-30T05:59:23.222Z,39.00
2019-03-30T06:04:26.980Z,32.00
2019-03-30T06:09:30.900Z,31.00
2019-03-30T06:14:34.571Z,39.00
2019-03-30T06:19:50.121Z,37.71
2019-03-30T06:24:54.696Z,34.83
2019-03-30T06:30:14.935Z,36.38
2019-03-30T06:35:18.996Z,35.00
2019-03-30T06:40:23.018Z,43.50
2019-03-30T06:45:29.942Z,36.44
2019-03-30T06:50:38.579Z,32.56
2019-03-30T06:55:43.270Z,27.33
2019-03-30T07:00:47.930Z,34.00
2019-03-30T07:05:52.606Z,32.67
2019-03-30T07:11:20.946Z,39.40
2019-03-30T07:16:33.100Z,47.90
2019-03-30T07:21:55.918Z,60.59
2019-03-30T07:32:07.944Z,41.00
2019-03-30T07:37:15.130Z,36.63
2019-03-30T07:42:21.527Z,31.37
2019-03-30T07:47:25.391Z,34.00
2019-03-30T07:52:29.339Z,31.33
2019-03-30T07:57:33.266Z,33.00
2019-03-30T08:02:36.980Z,35.00
2019-03-30T08:07:47.417Z,42.20
2019-03-30T08:12:55.040Z,34.10
2019-03-30T08:17:58.678Z,35.00
2019-03-30T08:23:05.140Z,31.00
2019-03-30T08:28:09.152Z,31.67
2019-03-30T08:33:20.181Z,42.40
2019-03-30T08:38:28.655Z,27.73
2019-03-30T08:43:41.150Z,27.62
2019-03-30T08:48:49.026Z,34.56
2019-03-30T08:53:54.779Z,28.00
2019-03-30T08:58:59.510Z,32.00
2019-03-30T09:04:07.863Z,39.60
2019-03-30T09:09:12.415Z,29.00
2019-03-30T09:14:16.750Z,30.00
2019-03-30T09:19:23.087Z,24.37
2019-03-30T09:24:30.036Z,33.13
2019-03-30T09:29:38.596Z,31.00
2019-03-30T09:34:49.008Z,36.42
2019-03-30T09:39:54.755Z,33.13
2019-03-30T09:45:00.094Z,28.00
2019-03-30T09:50:04.683Z,29.67
2019-03-30T09:55:13.434Z,36.38
2019-03-30T10:00:17.636Z,26.00
2019-03-30T10:05:26.292Z,31.82
2019-03-30T10:10:35.662Z,31.37
2019-03-30T10:15:38.898Z,29.75
2019-03-30T10:20:43.192Z,31.00
2019-03-30T10:25:46.756Z,28.00
2019-03-30T10:30:50.954Z,29.25
2019-03-30T10:35:55.482Z,28.00
2019-03-30T10:41:03.219Z,31.00
2019-03-30T10:46:07.230Z,28.00
2019-03-30T10:51:13.298Z,31.37
2019-03-30T10:56:20.151Z,37.88
2019-03-30T11:01:28.018Z,31.87
2019-03-30T11:06:37.035Z,34.88
2019-03-30T11:11:44.690Z,29.12
2019-03-30T11:16:47.814Z,25.33
2019-03-30T11:21:52.030Z,37.40
2019-03-30T11:26:59.574Z,33.00
2019-03-30T11:32:07.226Z,32.60
2019-03-30T11:37:12.547Z,32.00
2019-03-30T11:42:17.849Z,24.00
2019-03-30T11:47:31.253Z,24.06
2019-03-30T11:52:35.075Z,25.25
2019-03-30T11:57:41.386Z,26.12
2019-03-30T12:02:50.038Z,33.00
2019-03-30T12:08:02.731Z,47.59
2019-03-30T12:13:12.194Z,31.50
2019-03-30T12:18:21.424Z,28.09
2019-03-30T12:23:29.534Z,44.70
2019-03-30T12:28:36.236Z,26.75
2019-03-30T12:33:46.083Z,27.33
2019-03-30T12:38:51.419Z,22.57
2019-03-30T12:43:59.551Z,28.00
2019-03-30T12:49:05.720Z,23.00
2019-03-30T12:54:11.446Z,19.00
2019-03-30T12:59:14.606Z,27.00
2019-03-30T13:04:18.522Z,22.33
2019-03-30T13:09:24.267Z,22.00
2019-03-30T13:14:29.186Z,23.57
2019-03-30T13:19:34.318Z,21.29
2019-03-30T13:24:37.322Z,22.50
2019-03-30T13:29:43.711Z,21.25
2019-03-30T13:34:50.499Z,26.37
2019-03-30T13:39:56.669Z,24.57
2019-03-30T13:45:03.491Z,20.50
2019-03-30T13:50:07.856Z,20.00
2019-03-30T13:55:13.264Z,20.00
2019-03-30T14:00:19.518Z,24.12
2019-03-30T14:05:25.302Z,25.29
2019-03-30T14:10:28.955Z,22.67
2019-03-30T14:15:37.249Z,23.62
2019-03-30T14:20:40.346Z,16.00
2019-03-30T14:25:46.012Z,20.86
2019-03-30T14:30:52.358Z,20.88
2019-03-30T14:35:56.594Z,21.75
2019-03-30T14:41:03.960Z,15.75
2019-03-30T14:46:07.986Z,22.33
2019-03-30T14:51:14.510Z,25.25
2019-03-30T14:56:19.338Z,16.67
2019-03-30T15:01:25.780Z,18.12
2019-03-30T15:06:30.764Z,12.57
2019-03-30T15:11:38.004Z,14.00
2019-03-30T15:16:43.499Z,21.12
2019-03-30T15:21:47.680Z,23.00
2019-03-30T15:26:59.868Z,19.00
2019-03-30T15:31:58.128Z,15.75
2019-03-30T15:37:05.632Z,26.00
2019-03-30T15:42:09.019Z,24.00
2019-03-30T15:47:13.172Z,21.00
2019-03-30T15:52:18.210Z,21.67
2019-03-30T15:57:25.360Z,31.75
2019-03-30T16:02:30.403Z,21.00
2019-03-30T16:07:34.384Z,22.00
2019-03-30T16:12:43.640Z,23.89
2019-03-30T16:17:49.177Z,27.00
2019-03-30T16:22:52.862Z,24.00
2019-03-30T16:27:56.696Z,25.67
2019-03-30T16:33:02.940Z,23.25
2019-03-30T16:38:09.316Z,26.14
2019-03-30T16:43:16.499Z,25.00
2019-03-30T16:48:25.110Z,22.13
2019-03-30T16:53:28.028Z,22.75
2019-03-30T16:58:33.701Z,18.71
2019-03-30T17:03:37.437Z,23.67
2019-03-30T17:08:46.158Z,23.25
2019-03-30T17:13:53.083Z,26.00
2019-03-30T17:19:00.935Z,21.00
2019-03-30T17:24:08.073Z,29.22
2019-03-30T17:29:11.855Z,26.33
2019-03-30T17:34:19.944Z,28.38
2019-03-30T17:39:25.446Z,27.00
2019-03-30T17:44:28.618Z,28.00
2019-03-30T17:49:32.567Z,26.00
2019-03-30T17:54:39.965Z,33.00
2019-03-30T17:59:45.226Z,29.00
2019-03-30T18:04:50.949Z,31.00
2019-03-30T18:10:03.223Z,31.00
2019-03-30T18:15:09.471Z,30.62
2019-03-30T18:20:16.357Z,31.62
2019-03-30T18:25:21.467Z,37.00
2019-03-30T18:30:40.232Z,35.00
2019-03-30T18:35:48.089Z,38.75
2019-03-30T18:40:56.179Z,37.14
2019-03-30T18:46:06.231Z,36.78
2019-03-30T18:51:15.788Z,34.44
2019-03-30T18:56:27.902Z,35.00
2019-03-30T19:01:32.026Z,38.67
2019-03-30T19:06:37.654Z,39.00
2019-03-30T19:11:41.767Z,33.00
2019-03-30T19:16:50.860Z,39.44
2019-03-30T19:22:02.080Z,38.62
2019-03-30T19:27:11.030Z,33.60
2019-03-30T19:32:14.927Z,32.00
2019-03-30T19:37:24.897Z,34.22
2019-03-30T19:42:30.715Z,34.00
2019-03-30T19:47:38.433Z,34.11
2019-03-30T19:52:42.942Z,33.00
2019-03-30T19:57:53.513Z,34.82
2019-03-30T20:03:01.884Z,35.50
2019-03-30T20:08:12.394Z,31.75
2019-03-30T20:13:20.645Z,39.70
2019-03-30T20:18:25.095Z,48.00
2019-03-30T20:23:29.823Z,43.67
2019-03-30T20:28:48.323Z,44.45
2019-03-30T20:34:01.228Z,48.50
2019-03-30T20:39:08.366Z,49.40
2019-03-30T20:44:13.250Z,54.50
2019-03-30T20:49:17.856Z,65.00
2019-03-30T20:54:21.464Z,59.00
2019-03-30T20:59:40.374Z,60.21
2019-03-30T21:04:44.935Z,66.75
2019-03-30T21:10:22.116Z,63.49
2019-03-30T21:15:45.644Z,59.50
2019-03-30T21:21:02.082Z,58.77
2019-03-30T22:14:46.128Z,51.00
2019-03-30T22:19:56.196Z,50.78
2019-03-30T22:25:04.929Z,52.11
2019-03-30T22:30:24.530Z,50.11
2019-03-30T22:35:25.552Z,48.78
2019-03-30T22:40:35.298Z,49.44
2019-03-30T22:45:45.852Z,49.70
2019-03-30T22:50:55.584Z,51.56
2019-03-30T22:56:03.483Z,48.33
2019-03-30T23:01:12.646Z,48.70
2019-03-30T23:06:21.740Z,50.00
2019-03-30T23:11:31.749Z,51.33
2019-03-30T23:16:39.250Z,47.56
2019-03-30T23:21:49.766Z,47.11
2019-03-30T23:26:57.863Z,48.33
2019-03-30T23:32:07.475Z,44.22
2019-03-30T23:37:17.225Z,43.78
2019-03-30T23:42:27.040Z,42.44
2019-03-30T23:47:31.483Z,43.25
2019-03-30T23:52:40.274Z,38.89
2019-03-30T23:57:47.386Z,40.33
